Time;durP1;ratioP1;P1;durP2;ratioP2;P2;SDS_P1;SDS_P2;PMS_P1;PMS_P2;Temp;Humidity;BMP_temperature;BMP_pressure;BME280_temperature;BME280_humidity;BME280_pressure;Samples;Min_cycle;Max_cycle;Signal;HPM_P1;HPM_P2
2024/03/11 00:01:06;;;;;;;;;;;20.00;53.50;;;;;;1504253;78;686;-77
2024/03/11 00:03:08;;;;;;;;;;;20.10;53.50;;;;;;1516095;78;1150;-78
2024/03/11 00:05:11;;;;;;;;;;;20.10;53.60;;;;;;1510431;78;753;-77
2024/03/11 00:07:16;;;;;;;;;;;20.10;53.60;;;;;;1517703;78;650;-78
2024/03/11 00:09:28;;;;;;;;;;;20.10;53.70;;;;;;1521484;78;1913;-80
2024/03/11 00:11:25;;;;;;;;;;;20.10;53.70;;;;;;1513754;78;1013;-77
2024/03/11 00:13:37;;;;;;;;;;;20.10;53.80;;;;;;1521007;77;1351;-77
2024/03/11 00:15:31;;;;;;;;;;;20.10;53.70;;;;;;1505777;78;1056;-76
2024/03/11 00:17:33;;;;;;;;;;;20.00;53.60;;;;;;1519684;78;986;-76
2024/03/11 00:19:35;;;;;;;;;;;20.10;53.80;;;;;;1507385;78;663;-77
2024/03/11 00:21:37;;;;;;;;;;;20.00;53.60;;;;;;1509990;78;714;-78
2024/03/11 00:23:39;;;;;;;;;;;20.10;53.90;;;;;;1513602;78;1114;-77
2024/03/11 00:25:41;;;;;;;;;;;20.00;53.70;;;;;;1516217;78;819;-76
2024/03/11 00:27:43;;;;;;;;;;;20.10;53.80;;;;;;1514792;78;1565;-79
2024/03/11 00:29:45;;;;;;;;;;;20.10;53.90;;;;;;1508403;78;1915;-80
2024/03/11 00:31:47;;;;;;;;;;;20.10;53.90;;;;;;1507161;78;1129;-74
2024/03/11 00:33:49;;;;;;;;;;;20.10;53.90;;;;;;1502068;78;809;-73
2024/03/11 00:35:51;;;;;;;;;;;20.00;53.70;;;;;;1504404;78;682;-75
2024/03/11 00:37:52;;;;;;;;;;;20.10;53.90;;;;;;1509540;78;788;-77
2024/03/11 00:39:54;;;;;;;;;;;20.10;53.90;;;;;;1514148;78;723;-74
2024/03/11 00:41:56;;;;;;;;;;;20.00;53.80;;;;;;1511055;78;1385;-75
2024/03/11 00:43:58;;;;;;;;;;;20.10;53.90;;;;;;1513522;77;746;-77
2024/03/11 00:46:01;;;;;;;;;;;20.10;53.90;;;;;;1510795;78;831;-79
2024/03/11 00:48:06;;;;;;;;;;;20.10;54.00;;;;;;1504451;78;1909;-77
2024/03/11 00:50:07;;;;;;;;;;;20.10;54.00;;;;;;1512309;78;1020;-77
2024/03/11 00:52:09;;;;;;;;;;;20.10;54.00;;;;;;1505953;78;1157;-80
2024/03/11 00:54:11;;;;;;;;;;;20.10;54.10;;;;;;1510225;77;712;-79
2024/03/11 00:56:13;;;;;;;;;;;20.10;54.10;;;;;;1515920;78;1526;-76
2024/03/11 00:58:17;;;;;;;;;;;20.00;53.90;;;;;;1514296;78;748;-78
2024/03/11 01:00:22;;;;;;;;;;;20.00;53.90;;;;;;1509650;78;1892;-77
2024/03/11 01:02:24;;;;;;;;;;;20.10;54.10;;;;;;1505810;78;1520;-77
2024/03/11 01:04:27;;;;;;;;;;;20.10;54.10;;;;;;1511043;78;751;-76
2024/03/11 01:06:29;;;;;;;;;;;20.10;54.10;;;;;;1505855;78;756;-75
2024/03/11 01:08:31;;;;;;;;;;;20.10;54.10;;;;;;1505573;78;1938;-76
2024/03/11 01:10:33;;;;;;;;;;;20.10;54.10;;;;;;1511183;78;1339;-75
2024/03/11 01:12:34;;;;;;;;;;;20.00;54.00;;;;;;1506760;78;1148;-77
2024/03/11 01:14:36;;;;;;;;;;;20.10;54.10;;;;;;1511936;78;787;-76
2024/03/11 01:16:40;;;;;;;;;;;20.00;53.90;;;;;;1510795;78;706;-79
2024/03/11 01:18:42;;;;;;;;;;;20.00;53.90;;;;;;1519836;78;671;-75
2024/03/11 01:20:44;;;;;;;;;;;20.10;54.10;;;;;;1511829;77;874;-76
2024/03/11 01:22:46;;;;;;;;;;;20.00;54.00;;;;;;1511545;78;1114;-76
2024/03/11 01:24:47;;;;;;;;;;;20.10;54.10;;;;;;1513563;78;1512;-74
2024/03/11 01:26:49;;;;;;;;;;;20.10;54.10;;;;;;1509770;78;720;-76
2024/03/11 01:28:51;;;;;;;;;;;20.00;54.00;;;;;;1505278;78;1938;-79
2024/03/11 01:30:53;;;;;;;;;;;20.00;54.00;;;;;;1513658;78;747;-78
2024/03/11 01:32:55;;;;;;;;;;;20.10;54.10;;;;;;1503868;78;1121;-74
2024/03/11 01:34:58;;;;;;;;;;;20.10;54.10;;;;;;1503886;78;748;-75
2024/03/11 01:37:01;;;;;;;;;;;20.10;54.10;;;;;;1505158;77;1313;-78
2024/03/11 01:39:08;;;;;;;;;;;20.10;54.10;;;;;;1515177;78;732;-74
2024/03/11 01:41:11;;;;;;;;;;;20.00;54.00;;;;;;1510005;77;1495;-75
2024/03/11 01:43:17;;;;;;;;;;;20.10;54.10;;;;;;1512337;78;1144;-75
2024/03/11 01:45:17;;;;;;;;;;;20.00;54.10;;;;;;1514940;78;806;-76
2024/03/11 01:47:21;;;;;;;;;;;20.00;54.10;;;;;;1505900;78;668;-78
2024/03/11 01:49:25;;;;;;;;;;;20.10;54.20;;;;;;1508474;78;2133;-76
2024/03/11 01:51:27;;;;;;;;;;;20.00;54.10;;;;;;1516824;78;1461;-79
2024/03/11 01:53:29;;;;;;;;;;;20.10;54.30;;;;;;1513020;78;1139;-80
2024/03/11 01:55:31;;;;;;;;;;;20.00;54.10;;;;;;1519196;78;759;-76
2024/03/11 01:57:33;;;;;;;;;;;20.10;54.40;;;;;;1516166;77;653;-75
2024/03/11 01:59:37;;;;;;;;;;;20.10;54.30;;;;;;1512393;78;642;-76
2024/03/11 02:01:39;;;;;;;;;;;20.10;54.40;;;;;;1510644;77;731;-76
2024/03/11 02:03:41;;;;;;;;;;;20.10;54.30;;;;;;1513665;78;1081;-73
2024/03/11 02:05:43;;;;;;;;;;;20.00;54.20;;;;;;1505694;78;1314;-76
2024/03/11 02:07:46;;;;;;;;;;;20.00;54.20;;;;;;1513259;78;716;-77
2024/03/11 02:09:48;;;;;;;;;;;20.00;54.20;;;;;;1505984;77;1948;-77
2024/03/11 02:11:50;;;;;;;;;;;20.00;54.20;;;;;;1514197;78;1201;-77
2024/03/11 02:13:53;;;;;;;;;;;20.10;54.40;;;;;;1512762;78;945;-76
2024/03/11 02:15:54;;;;;;;;;;;20.10;54.40;;;;;;1518711;77;727;-77
2024/03/11 02:17:57;;;;;;;;;;;20.10;54.40;;;;;;1510074;78;729;-77
2024/03/11 02:19:59;;;;;;;;;;;20.10;54.40;;;;;;1513296;78;1401;-77
2024/03/11 02:22:02;;;;;;;;;;;20.10;54.50;;;;;;1513070;78;1227;-77
2024/03/11 02:24:06;;;;;;;;;;;20.10;54.60;;;;;;1509317;78;742;-75
2024/03/11 02:26:08;;;;;;;;;;;20.00;54.40;;;;;;1506485;78;697;-76
2024/03/11 02:28:09;;;;;;;;;;;20.00;54.40;;;;;;1507022;78;625;-76
2024/03/11 02:30:11;;;;;;;;;;;20.10;54.60;;;;;;1506459;78;1940;-77
2024/03/11 02:32:13;;;;;;;;;;;20.10;54.60;;;;;;1506030;78;1179;-77
2024/03/11 02:34:16;;;;;;;;;;;20.10;54.70;;;;;;1507403;78;1560;-73
2024/03/11 02:36:22;;;;;;;;;;;20.10;54.70;;;;;;1513569;78;840;-78
2024/03/11 02:38:23;;;;;;;;;;;20.50;54.90;;;;;;1491046;78;1137;-75
2024/03/11 02:40:29;;;;;;;;;;;20.10;54.70;;;;;;1503658;79;960;-75
2024/03/11 02:42:39;;;;;;;;;;;20.10;54.70;;;;;;1503014;79;1176;-76
2024/03/11 02:44:38;;;;;;;;;;;20.10;54.70;;;;;;1499263;78;1596;-79
2024/03/11 02:46:45;;;;;;;;;;;20.00;54.60;;;;;;1502099;79;792;-76
2024/03/11 02:48:44;;;;;;;;;;;20.10;54.80;;;;;;1492454;78;1934;-76
2024/03/11 02:50:46;;;;;;;;;;;20.00;54.60;;;;;;1501989;78;848;-77
2024/03/11 02:52:48;;;;;;;;;;;20.10;54.80;;;;;;1491748;78;1122;-75
2024/03/11 02:54:53;;;;;;;;;;;20.10;54.70;;;;;;1550564;76;881;-76
2024/03/11 02:56:53;;;;;;;;;;;20.10;54.70;;;;;;1552185;75;1645;-75
2024/03/11 02:58:55;;;;;;;;;;;20.10;54.80;;;;;;1557170;75;791;-76
2024/03/11 03:00:57;;;;;;;;;;;20.10;54.80;;;;;;1543205;75;798;-76
2024/03/11 03:02:59;;;;;;;;;;;20.10;54.90;;;;;;1547240;75;1478;-75
2024/03/11 03:05:01;;;;;;;;;;;20.10;54.80;;;;;;1501073;78;933;-73
2024/03/11 03:07:02;;;;;;;;;;;20.10;54.90;;;;;;1560403;75;771;-76
2024/03/11 03:09:06;;;;;;;;;;;20.10;54.90;;;;;;1552799;75;1936;-77
2024/03/11 03:11:08;;;;;;;;;;;20.10;54.90;;;;;;1551072;75;1530;-78
2024/03/11 03:13:10;;;;;;;;;;;20.10;54.90;;;;;;1553656;75;1138;-76
2024/03/11 03:15:12;;;;;;;;;;;20.10;55.00;;;;;;1549072;75;731;-74
2024/03/11 03:17:14;;;;;;;;;;;20.10;55.00;;;;;;1558133;75;1498;-78
2024/03/11 03:19:16;;;;;;;;;;;20.00;54.80;;;;;;1550145;75;720;-76
2024/03/11 03:21:18;;;;;;;;;;;20.10;55.00;;;;;;1560261;75;737;-77
2024/03/11 03:23:20;;;;;;;;;;;20.00;54.80;;;;;;1556034;75;1137;-76
2024/03/11 03:25:30;;;;;;;;;;;20.00;54.90;;;;;;1547401;74;630;-75
2024/03/11 03:27:25;;;;;;;;;;;20.10;55.00;;;;;;1548431;76;1452;-76
2024/03/11 03:29:27;;;;;;;;;;;20.10;55.00;;;;;;1549946;75;1938;-76
2024/03/11 03:31:30;;;;;;;;;;;20.10;55.00;;;;;;1553501;75;753;-76
2024/03/11 03:33:33;;;;;;;;;;;20.10;55.00;;;;;;1559809;75;1140;-76
2024/03/11 03:35:35;;;;;;;;;;;20.00;54.90;;;;;;1543618;75;749;-76
2024/03/11 03:37:37;;;;;;;;;;;20.00;54.90;;;;;;1546085;75;714;-76
2024/03/11 03:39:41;;;;;;;;;;;20.00;55.00;;;;;;1553540;75;766;-78
2024/03/11 03:41:44;;;;;;;;;;;20.20;55.00;;;;;;1559030;75;703;-75
2024/03/11 03:43:46;;;;;;;;;;;20.10;55.10;;;;;;1552394;75;1566;-80
2024/03/11 03:45:48;;;;;;;;;;;20.10;55.00;;;;;;1566758;75;785;-77
2024/03/11 03:47:50;;;;;;;;;;;20.10;55.00;;;;;;1557243;75;683;-77
2024/03/11 03:49:53;;;;;;;;;;;20.10;55.10;;;;;;1548580;75;1942;-77
2024/03/11 03:51:54;;;;;;;;;;;20.00;55.00;;;;;;1544312;75;1154;-77
2024/03/11 03:53:57;;;;;;;;;;;20.00;55.00;;;;;;1551147;76;772;-76
2024/03/11 03:55:59;;;;;;;;;;;20.10;55.10;;;;;;1548350;75;770;-77
2024/03/11 03:58:01;;;;;;;;;;;20.00;55.00;;;;;;1553924;74;1271;-77
2024/03/11 04:00:05;;;;;;;;;;;20.10;55.20;;;;;;1544236;75;795;-79
2024/03/11 04:02:07;;;;;;;;;;;20.10;55.10;;;;;;1552930;75;1146;-78
2024/03/11 04:04:09;;;;;;;;;;;20.10;55.10;;;;;;1547868;75;743;-80
2024/03/11 04:06:11;;;;;;;;;;;20.10;55.20;;;;;;1556687;75;734;-76
2024/03/11 04:08:13;;;;;;;;;;;20.00;55.00;;;;;;1498790;78;828;-77
2024/03/11 04:10:18;;;;;;;;;;;20.00;55.00;;;;;;1493960;79;1932;-78
2024/03/11 04:12:19;;;;;;;;;;;20.00;55.00;;;;;;1493194;79;1590;-76
2024/03/11 04:14:21;;;;;;;;;;;20.10;55.20;;;;;;1496113;79;835;-77
2024/03/11 04:16:25;;;;;;;;;;;20.20;55.20;;;;;;1487856;79;723;-77
2024/03/11 04:18:27;;;;;;;;;;;20.10;55.20;;;;;;1503915;79;687;-75
2024/03/11 04:20:29;;;;;;;;;;;20.10;55.20;;;;;;1497378;79;709;-78
2024/03/11 04:22:32;;;;;;;;;;;20.10;55.20;;;;;;1499228;79;1197;-77
2024/03/11 04:24:36;;;;;;;;;;;20.10;55.20;;;;;;1501335;79;689;-77
2024/03/11 04:26:38;;;;;;;;;;;20.10;55.20;;;;;;1502105;79;1552;-76
2024/03/11 04:28:40;;;;;;;;;;;20.10;55.30;;;;;;1495696;79;765;-77
2024/03/11 04:30:44;;;;;;;;;;;20.00;55.10;;;;;;1492154;78;1941;-76
2024/03/11 04:32:55;;;;;;;;;;;20.10;55.30;;;;;;1506887;77;1208;-77
2024/03/11 04:34:49;;;;;;;;;;;20.10;55.30;;;;;;1501991;78;1357;-77
2024/03/11 04:36:51;;;;;;;;;;;20.10;55.40;;;;;;1516697;77;740;-77
2024/03/11 04:38:53;;;;;;;;;;;20.00;55.20;;;;;;1523715;77;676;-81
2024/03/11 04:40:55;;;;;;;;;;;20.10;55.40;;;;;;1509376;77;1570;-77
2024/03/11 04:42:57;;;;;;;;;;;20.00;55.20;;;;;;1511110;77;1157;-77
2024/03/11 04:44:59;;;;;;;;;;;20.10;55.40;;;;;;1492355;79;787;-77
2024/03/11 04:47:03;;;;;;;;;;;20.10;55.40;;;;;;1498496;79;850;-76
2024/03/11 04:49:09;;;;;;;;;;;20.10;55.30;;;;;;1551455;75;1558;-76
2024/03/11 04:51:09;;;;;;;;;;;20.00;55.20;;;;;;1555198;75;1916;-78
2024/03/11 04:53:12;;;;;;;;;;;20.10;55.40;;;;;;1552548;75;1181;-77
2024/03/11 04:55:14;;;;;;;;;;;20.10;55.40;;;;;;1544196;75;1469;-76
2024/03/11 04:57:15;;;;;;;;;;;20.10;55.40;;;;;;1549640;75;698;-76
2024/03/11 04:59:18;;;;;;;;;;;20.10;55.30;;;;;;1545451;75;852;-76
2024/03/11 05:01:20;;;;;;;;;;;20.10;55.50;;;;;;1554915;75;709;-75
2024/03/11 05:03:22;;;;;;;;;;;20.10;55.50;;;;;;1557459;75;1117;-76
2024/03/11 05:05:25;;;;;;;;;;;20.10;55.50;;;;;;1558331;75;728;-75
2024/03/11 05:07:27;;;;;;;;;;;20.10;55.60;;;;;;1554754;75;748;-76
2024/03/11 05:09:29;;;;;;;;;;;20.20;55.60;;;;;;1556069;75;1939;-75
2024/03/11 05:11:32;;;;;;;;;;;20.10;55.50;;;;;;1552864;75;796;-67
2024/03/11 05:13:34;;;;;;;;;;;20.10;55.80;;;;;;1548287;75;1137;-80
2024/03/11 05:15:36;;;;;;;;;;;20.10;55.50;;;;;;1553958;74;691;-74
2024/03/11 05:17:37;;;;;;;;;;;20.20;54.70;;;;;;1563342;74;739;-73
2024/03/11 05:19:39;;;;;;;;;;;20.20;54.30;;;;;;1552222;75;677;-72
2024/03/11 05:21:41;;;;;;;;;;;20.20;53.80;;;;;;1547666;74;865;-74
2024/03/11 05:23:43;;;;;;;;;;;20.10;53.40;;;;;;1550072;74;1659;-72
2024/03/11 05:25:45;;;;;;;;;;;20.10;53.30;;;;;;1556099;74;793;-73
2024/03/11 05:27:47;;;;;;;;;;;20.00;53.00;;;;;;1551911;75;748;-74
2024/03/11 05:29:49;;;;;;;;;;;20.00;53.10;;;;;;1558832;75;1926;-76
2024/03/11 05:31:51;;;;;;;;;;;20.00;52.80;;;;;;1556846;75;1215;-72
2024/03/11 05:33:53;;;;;;;;;;;20.00;52.70;;;;;;1552665;75;730;-75
2024/03/11 05:35:55;;;;;;;;;;;20.00;52.90;;;;;;1553365;74;682;-72
2024/03/11 05:38:00;;;;;;;;;;;20.00;52.00;;;;;;1558795;74;1746;-73
2024/03/11 05:40:01;;;;;;;;;;;20.00;49.00;;;;;;1562454;74;1163;-71
2024/03/11 05:42:05;;;;;;;;;;;19.90;48.60;;;;;;1561921;74;1152;-71
2024/03/11 05:44:07;;;;;;;;;;;19.80;48.20;;;;;;1553316;74;1601;-71
2024/03/11 05:46:09;;;;;;;;;;;19.80;47.90;;;;;;1550634;74;687;-73
2024/03/11 05:48:10;;;;;;;;;;;19.70;46.70;;;;;;1554569;75;848;-71
2024/03/11 05:50:14;;;;;;;;;;;19.60;47.10;;;;;;1561084;75;1927;-72
2024/03/11 05:52:16;;;;;;;;;;;19.50;46.30;;;;;;1549544;75;1174;-75
2024/03/11 05:54:18;;;;;;;;;;;19.50;46.30;;;;;;1555445;75;904;-74
2024/03/11 05:56:22;;;;;;;;;;;19.50;47.30;;;;;;1550966;75;726;-74
2024/03/11 05:58:26;;;;;;;;;;;19.50;47.90;;;;;;1551552;76;1715;-78
2024/03/11 06:00:31;;;;;;;;;;;19.50;48.30;;;;;;1557456;75;1663;-76
2024/03/11 06:02:31;;;;;;;;;;;19.50;48.50;;;;;;1553304;75;1616;-74
2024/03/11 06:04:32;;;;;;;;;;;19.50;48.60;;;;;;1558788;75;1344;-73
2024/03/11 06:06:34;;;;;;;;;;;19.60;48.80;;;;;;1554317;75;736;-77
2024/03/11 06:08:37;;;;;;;;;;;19.60;49.00;;;;;;1551265;75;722;-76
2024/03/11 06:10:40;;;;;;;;;;;19.50;47.80;;;;;;1557358;74;1908;-78
2024/03/11 06:12:43;;;;;;;;;;;19.50;48.50;;;;;;1550142;75;1213;-77
2024/03/11 06:14:45;;;;;;;;;;;19.60;48.60;;;;;;1547849;75;737;-75
2024/03/11 06:16:47;;;;;;;;;;;19.60;48.80;;;;;;1551916;75;737;-77
2024/03/11 06:18:49;;;;;;;;;;;19.70;49.00;;;;;;1557258;75;1569;-75
2024/03/11 06:20:51;;;;;;;;;;;19.60;49.00;;;;;;1552355;75;773;-76
2024/03/11 06:22:53;;;;;;;;;;;19.60;49.10;;;;;;1511440;77;1164;-75
2024/03/11 06:24:55;;;;;;;;;;;19.60;49.20;;;;;;1518365;77;699;-76
2024/03/11 06:26:57;;;;;;;;;;;19.70;49.40;;;;;;1490866;78;756;-77
2024/03/11 06:29:00;;;;;;;;;;;19.70;49.50;;;;;;1492993;78;725;-75
2024/03/11 06:31:03;;;;;;;;;;;19.60;49.50;;;;;;1495596;78;1908;-74
2024/03/11 06:33:09;;;;;;;;;;;19.70;49.70;;;;;;1496555;78;1564;-78
2024/03/11 06:35:09;;;;;;;;;;;19.70;49.80;;;;;;1493874;78;1637;-78
2024/03/11 06:37:11;;;;;;;;;;;19.70;49.90;;;;;;1497719;78;785;-76
2024/03/11 06:39:14;;;;;;;;;;;19.80;50.00;;;;;;1510026;78;670;-77
2024/03/11 06:41:21;;;;;;;;;;;19.80;50.00;;;;;;1509404;78;682;-76
2024/03/11 06:43:20;;;;;;;;;;;19.80;50.10;;;;;;1510730;78;1645;-80
2024/03/11 06:45:22;;;;;;;;;;;19.70;50.20;;;;;;1511290;78;654;-79
2024/03/11 06:47:24;;;;;;;;;;;19.80;50.30;;;;;;1510203;78;1580;-84
2024/03/11 06:49:26;;;;;;;;;;;19.80;50.30;;;;;;1512117;78;737;-82
2024/03/11 06:51:28;;;;;;;;;;;19.80;50.40;;;;;;1509796;78;1938;-78
2024/03/11 06:53:30;;;;;;;;;;;19.80;50.50;;;;;;1507435;78;1145;-81
2024/03/11 06:55:32;;;;;;;;;;;19.80;50.50;;;;;;1500598;78;650;-78
2024/03/11 06:57:34;;;;;;;;;;;19.80;50.60;;;;;;1498586;78;706;-77
2024/03/11 06:59:36;;;;;;;;;;;19.80;50.60;;;;;;1498628;78;725;-78
2024/03/11 07:01:38;;;;;;;;;;;19.80;50.60;;;;;;1507407;78;1595;-77
2024/03/11 07:03:41;;;;;;;;;;;19.80;50.70;;;;;;1507652;78;1118;-81
2024/03/11 07:05:43;;;;;;;;;;;19.80;50.70;;;;;;1510467;78;680;-79
2024/03/11 07:07:45;;;;;;;;;;;19.80;50.70;;;;;;1482850;78;730;-78
2024/03/11 07:09:47;;;;;;;;;;;19.80;50.80;;;;;;1507547;78;743;-77
2024/03/11 07:11:49;;;;;;;;;;;19.80;50.90;;;;;;1507917;78;1948;-77
2024/03/11 07:13:51;;;;;;;;;;;19.90;51.00;;;;;;1507146;78;744;-77
2024/03/11 07:15:53;;;;;;;;;;;19.90;51.00;;;;;;1501938;78;1341;-77
2024/03/11 07:17:55;;;;;;;;;;;19.80;50.90;;;;;;1504997;78;699;-80
2024/03/11 07:19:57;;;;;;;;;;;19.80;51.00;;;;;;1497338;78;572;-83
2024/03/11 07:21:59;;;;;;;;;;;19.80;51.00;;;;;;1508376;78;1212;-81
2024/03/11 07:24:01;;;;;;;;;;;19.80;51.00;;;;;;1505945;78;757;-79
2024/03/11 07:26:03;;;;;;;;;;;19.90;51.10;;;;;;1495405;78;726;-83
2024/03/11 07:28:05;;;;;;;;;;;19.80;51.00;;;;;;1502538;78;759;-78
2024/03/11 07:30:08;;;;;;;;;;;19.90;51.20;;;;;;1499895;78;1536;-81
2024/03/11 07:32:11;;;;;;;;;;;19.80;51.10;;;;;;1505422;78;1942;-84
2024/03/11 07:34:13;;;;;;;;;;;19.90;51.20;;;;;;1502458;78;718;-79
2024/03/11 07:36:15;;;;;;;;;;;19.90;51.30;;;;;;1493228;78;736;-79
2024/03/11 07:38:18;;;;;;;;;;;19.90;51.20;;;;;;1503882;78;728;-78
2024/03/11 07:40:19;;;;;;;;;;;19.80;51.20;;;;;;1506522;78;674;-77
2024/03/11 07:42:22;;;;;;;;;;;19.90;51.30;;;;;;1507931;78;1146;-79
2024/03/11 07:44:25;;;;;;;;;;;19.90;51.30;;;;;;1507546;78;1657;-79
2024/03/11 07:46:28;;;;;;;;;;;19.90;51.30;;;;;;1505420;78;648;-80
2024/03/11 07:48:30;;;;;;;;;;;19.80;51.30;;;;;;1500466;78;1599;-80
2024/03/11 07:50:32;;;;;;;;;;;19.90;51.30;;;;;;1499675;78;1916;-78
2024/03/11 07:52:34;;;;;;;;;;;19.90;51.30;;;;;;1508274;78;1159;-78
2024/03/11 07:54:36;;;;;;;;;;;19.90;51.30;;;;;;1503706;78;634;-78
2024/03/11 07:56:38;;;;;;;;;;;19.90;51.40;;;;;;1502246;78;1356;-78
2024/03/11 07:58:40;;;;;;;;;;;19.90;51.40;;;;;;1499423;78;705;-81
2024/03/11 08:00:42;;;;;;;;;;;19.90;51.40;;;;;;1498512;78;776;-80
2024/03/11 08:02:50;;;;;;;;;;;19.90;51.50;;;;;;1497922;78;1147;-77
2024/03/11 08:04:55;;;;;;;;;;;19.90;51.40;;;;;;1499445;78;756;-80
2024/03/11 08:06:56;;;;;;;;;;;19.90;51.50;;;;;;1492359;78;1625;-83
2024/03/11 08:08:58;;;;;;;;;;;19.90;51.50;;;;;;1498246;78;785;-77
2024/03/11 08:11:00;;;;;;;;;;;19.90;51.50;;;;;;1503882;78;1930;-79
2024/03/11 08:13:02;;;;;;;;;;;19.90;51.50;;;;;;1508768;78;1152;-77
2024/03/11 08:15:06;;;;;;;;;;;19.90;51.50;;;;;;1510204;78;753;-75
2024/03/11 08:17:09;;;;;;;;;;;19.90;51.50;;;;;;1507645;78;680;-78
2024/03/11 08:19:12;;;;;;;;;;;20.00;51.50;;;;;;1508634;78;817;-80
2024/03/11 08:21:13;;;;;;;;;;;19.90;51.50;;;;;;1500605;78;923;-79
2024/03/11 08:23:15;;;;;;;;;;;19.90;51.50;;;;;;1502059;78;1149;-80
2024/03/11 08:25:27;;;;;;;;;;;20.00;51.50;;;;;;1506006;78;1412;-80
2024/03/11 08:27:23;;;;;;;;;;;20.00;51.50;;;;;;1508822;78;1553;-77
2024/03/11 08:29:26;;;;;;;;;;;20.00;51.50;;;;;;1509183;78;756;-76
2024/03/11 08:31:28;;;;;;;;;;;20.00;51.50;;;;;;1508592;78;1922;-81
2024/03/11 08:33:30;;;;;;;;;;;20.00;51.50;;;;;;1513444;78;1123;-81
2024/03/11 08:35:32;;;;;;;;;;;20.00;51.50;;;;;;1503662;78;729;-78
2024/03/11 08:37:34;;;;;;;;;;;20.00;51.50;;;;;;1510195;78;716;-78
2024/03/11 08:39:36;;;;;;;;;;;20.10;51.70;;;;;;1512951;78;1302;-78
2024/03/11 08:41:38;;;;;;;;;;;20.00;51.50;;;;;;1507385;78;762;-78
2024/03/11 08:43:41;;;;;;;;;;;20.00;51.50;;;;;;1505609;78;1118;-79
2024/03/11 08:45:44;;;;;;;;;;;20.10;51.70;;;;;;1501408;78;766;-77
2024/03/11 08:47:47;;;;;;;;;;;20.10;51.60;;;;;;1511067;78;743;-77
2024/03/11 08:49:49;;;;;;;;;;;20.10;51.70;;;;;;1503528;78;1240;-80
2024/03/11 08:51:51;;;;;;;;;;;20.10;51.70;;;;;;1502352;78;1921;-79
2024/03/11 08:53:53;;;;;;;;;;;20.10;51.70;;;;;;1501226;78;1588;-81
2024/03/11 08:55:56;;;;;;;;;;;20.10;51.60;;;;;;1498280;78;752;-75
2024/03/11 08:57:58;;;;;;;;;;;20.10;51.60;;;;;;1494269;78;728;-81
2024/03/11 09:00:06;;;;;;;;;;;20.10;51.60;;;;;;1500310;78;812;-82
2024/03/11 09:02:05;;;;;;;;;;;20.10;51.60;;;;;;1497792;78;1658;-80
2024/03/11 09:04:12;;;;;;;;;;;20.10;51.60;;;;;;1503097;78;718;-78
2024/03/11 09:06:14;;;;;;;;;;;20.10;51.60;;;;;;1494167;78;711;-79
2024/03/11 09:08:16;;;;;;;;;;;20.20;51.60;;;;;;1502297;78;1535;-79
2024/03/11 09:10:18;;;;;;;;;;;20.20;51.60;;;;;;1501229;78;764;-84
2024/03/11 09:12:21;;;;;;;;;;;20.10;51.60;;;;;;1497613;78;1932;-77
2024/03/11 09:14:26;;;;;;;;;;;20.20;51.60;;;;;;1510358;78;682;-78
2024/03/11 09:16:28;;;;;;;;;;;20.10;51.50;;;;;;1509615;78;747;-77
2024/03/11 09:18:30;;;;;;;;;;;20.10;51.60;;;;;;1507887;78;785;-78
2024/03/11 09:20:32;;;;;;;;;;;20.20;51.50;;;;;;1507801;78;691;-77
2024/03/11 09:22:34;;;;;;;;;;;20.10;51.50;;;;;;1505512;78;1574;-77
2024/03/11 09:24:36;;;;;;;;;;;20.10;51.50;;;;;;1498598;78;626;-79
2024/03/11 09:26:39;;;;;;;;;;;20.20;51.50;;;;;;1503630;78;791;-79
2024/03/11 09:28:43;;;;;;;;;;;20.20;51.50;;;;;;1504881;78;661;-79
2024/03/11 09:30:46;;;;;;;;;;;20.30;51.70;;;;;;1505009;78;727;-77
2024/03/11 09:32:49;;;;;;;;;;;20.20;51.50;;;;;;1493971;78;1926;-78
2024/03/11 09:34:51;;;;;;;;;;;20.20;51.50;;;;;;1502070;78;788;-76
2024/03/11 09:36:53;;;;;;;;;;;20.20;51.50;;;;;;1509085;78;1679;-78
2024/03/11 09:38:55;;;;;;;;;;;20.20;51.50;;;;;;1496724;78;751;-78
2024/03/11 09:40:57;;;;;;;;;;;20.20;51.50;;;;;;1504071;78;757;-81
2024/03/11 09:43:00;;;;;;;;;;;20.20;51.50;;;;;;1505809;78;1155;-78
2024/03/11 09:45:06;;;;;;;;;;;20.20;51.50;;;;;;1507924;78;679;-80
2024/03/11 09:47:07;;;;;;;;;;;20.20;51.50;;;;;;1500729;78;1145;-78
2024/03/11 09:49:09;;;;;;;;;;;20.20;51.40;;;;;;1506646;78;1572;-78
2024/03/11 09:51:15;;;;;;;;;;;20.30;51.60;;;;;;1508320;78;1938;-79
2024/03/11 09:53:18;;;;;;;;;;;20.30;51.50;;;;;;1506001;78;1132;-76
2024/03/11 09:55:18;;;;;;;;;;;20.20;51.40;;;;;;1502981;78;1160;-82
2024/03/11 09:57:20;;;;;;;;;;;20.20;51.50;;;;;;1503717;78;740;-79
2024/03/11 09:59:25;;;;;;;;;;;20.20;51.50;;;;;;1509483;78;749;-79
2024/03/11 10:01:33;;;;;;;;;;;20.30;51.50;;;;;;1511011;78;764;-77
2024/03/11 10:03:36;;;;;;;;;;;20.20;51.40;;;;;;1525007;76;1583;-79
2024/03/11 10:05:39;;;;;;;;;;;20.30;51.50;;;;;;1504557;78;650;-84
2024/03/11 10:07:48;;;;;;;;;;;20.30;51.60;;;;;;1501155;78;740;-81
2024/03/11 10:09:46;;;;;;;;;;;20.30;51.50;;;;;;1500568;78;1087;-77
2024/03/11 10:12:07;;;;;;;;;;;20.40;51.50;;;;;;1508163;78;1911;-78
2024/03/11 10:14:20;;;;;;;;;;;20.30;51.40;;;;;;1505345;78;1057;-79
2024/03/11 10:16:24;;;;;;;;;;;20.30;51.50;;;;;;1507145;78;746;-78
2024/03/11 10:18:25;;;;;;;;;;;20.30;51.50;;;;;;1505841;78;1636;-80
2024/03/11 10:20:27;;;;;;;;;;;20.40;51.40;;;;;;1508774;78;751;-76
2024/03/11 10:22:30;;;;;;;;;;;20.30;51.30;;;;;;1501946;78;1228;-78
2024/03/11 10:24:33;;;;;;;;;;;20.30;51.40;;;;;;1504818;78;709;-80
2024/03/11 10:26:45;;;;;;;;;;;20.30;51.40;;;;;;1507610;78;719;-78
2024/03/11 10:28:39;;;;;;;;;;;20.30;51.30;;;;;;1506937;78;1661;-77
2024/03/11 10:30:41;;;;;;;;;;;20.30;51.30;;;;;;1506366;78;832;-78
2024/03/11 10:32:43;;;;;;;;;;;20.30;51.30;;;;;;1511184;78;1961;-78
2024/03/11 10:34:56;;;;;;;;;;;20.30;51.30;;;;;;1504132;78;747;-80
2024/03/11 10:37:02;;;;;;;;;;;20.30;51.20;;;;;;1506772;78;710;-78
2024/03/11 10:39:17;;;;;;;;;;;20.40;51.20;;;;;;1505652;78;684;-79
2024/03/11 10:41:20;;;;;;;;;;;20.30;51.20;;;;;;1511306;78;1132;-83
2024/03/11 10:43:24;;;;;;;;;;;20.30;51.20;;;;;;1510142;78;1135;-78
2024/03/11 10:45:30;;;;;;;;;;;20.30;51.10;;;;;;1500871;78;1564;-79
2024/03/11 10:47:32;;;;;;;;;;;20.40;51.10;;;;;;1502661;78;1089;-78
2024/03/11 10:49:34;;;;;;;;;;;20.30;51.00;;;;;;1506279;78;742;-82
2024/03/11 10:51:36;;;;;;;;;;;20.30;51.00;;;;;;1504432;78;1930;-77
2024/03/11 10:53:40;;;;;;;;;;;20.40;51.00;;;;;;1504633;78;1139;-76
2024/03/11 10:55:42;;;;;;;;;;;20.30;51.00;;;;;;1503768;78;1622;-74
2024/03/11 10:57:46;;;;;;;;;;;20.30;51.00;;;;;;1506128;78;771;-75
2024/03/11 10:59:48;;;;;;;;;;;20.30;50.90;;;;;;1507149;77;2030;-77
2024/03/11 11:01:52;;;;;;;;;;;20.30;50.90;;;;;;1507777;78;741;-78
2024/03/11 11:03:54;;;;;;;;;;;20.30;50.90;;;;;;1505943;77;1059;-75
2024/03/11 11:06:00;;;;;;;;;;;20.30;50.90;;;;;;1504693;78;720;-76
2024/03/11 11:08:02;;;;;;;;;;;20.30;50.80;;;;;;1514002;78;984;-77
2024/03/11 11:10:05;;;;;;;;;;;20.30;50.90;;;;;;1509336;77;713;-75
2024/03/11 11:12:07;;;;;;;;;;;20.30;50.80;;;;;;1507239;78;1933;-75
2024/03/11 11:14:11;;;;;;;;;;;20.30;50.80;;;;;;1505473;78;1553;-75
2024/03/11 11:16:13;;;;;;;;;;;20.30;50.80;;;;;;1510894;78;1024;-77
2024/03/11 11:18:16;;;;;;;;;;;20.30;50.80;;;;;;1508892;78;739;-80
2024/03/11 11:20:30;;;;;;;;;;;20.30;50.80;;;;;;1504730;77;819;-79
2024/03/11 11:22:33;;;;;;;;;;;20.30;50.70;;;;;;1506548;78;1196;-79
2024/03/11 11:24:42;;;;;;;;;;;20.30;50.70;;;;;;1505925;78;727;-75
2024/03/11 11:26:44;;;;;;;;;;;20.20;50.60;;;;;;1500864;78;729;-76
2024/03/11 11:28:46;;;;;;;;;;;20.30;50.70;;;;;;1510698;78;1497;-76
2024/03/11 11:30:48;;;;;;;;;;;20.30;50.70;;;;;;1502735;78;719;-78
2024/03/11 11:32:51;;;;;;;;;;;20.30;50.70;;;;;;1512444;78;1944;-76
2024/03/11 11:34:55;;;;;;;;;;;20.30;50.70;;;;;;1511197;78;657;-78
2024/03/11 11:36:57;;;;;;;;;;;20.20;50.60;;;;;;1510526;78;1501;-75
2024/03/11 11:39:23;;;;;;;;;;;20.30;50.60;;;;;;1503093;78;735;-76
2024/03/11 11:41:39;;;;;;;;;;;20.20;50.50;;;;;;1506134;78;1617;-76
2024/03/11 11:43:44;;;;;;;;;;;20.20;50.50;;;;;;1509729;78;1868;-77
2024/03/11 11:45:47;;;;;;;;;;;20.30;50.60;;;;;;1511068;78;658;-76
2024/03/11 11:47:49;;;;;;;;;;;20.30;50.60;;;;;;1507053;78;725;-76
2024/03/11 11:49:51;;;;;;;;;;;20.30;50.60;;;;;;1509308;78;766;-78
2024/03/11 11:51:54;;;;;;;;;;;20.30;50.50;;;;;;1506043;78;1923;-77
2024/03/11 11:53:56;;;;;;;;;;;20.20;50.40;;;;;;1504644;78;742;-80
2024/03/11 11:55:58;;;;;;;;;;;20.20;50.40;;;;;;1502014;78;1545;-75
2024/03/11 11:58:07;;;;;;;;;;;20.30;50.50;;;;;;1505538;78;765;-74
2024/03/11 12:00:13;;;;;;;;;;;20.20;50.40;;;;;;1499263;77;1074;-73
2024/03/11 12:02:16;;;;;;;;;;;20.20;50.30;;;;;;1512185;78;1132;-75
2024/03/11 12:04:18;;;;;;;;;;;20.30;50.50;;;;;;1510080;78;749;-77
2024/03/11 12:06:20;;;;;;;;;;;20.30;50.50;;;;;;1511013;78;819;-74
2024/03/11 12:08:24;;;;;;;;;;;20.20;50.30;;;;;;1508424;78;791;-76
2024/03/11 12:10:26;;;;;;;;;;;20.20;50.30;;;;;;1503933;78;1726;-76